sensor_id;sensor_type;location;lat;lon;timestamp;pressure;altitude;pressure_sealevel;temperature;humidity
8039;BME280;4062;49.844;8.120;2023-06-04T00:00:04;99493.44;;;17.11;59.61
8039;BME280;4062;49.844;8.120;2023-06-04T00:02:07;99495.25;;;17.11;59.93
8039;BME280;4062;49.844;8.120;2023-06-04T00:04:08;99499.66;;;17.12;59.78
8039;BME280;4062;49.844;8.120;2023-06-04T00:06:09;99497.06;;;17.10;59.73
8039;BME280;4062;49.844;8.120;2023-06-04T00:08:11;99499.66;;;17.12;59.75
8039;BME280;4062;49.844;8.120;2023-06-04T00:10:12;99492.59;;;17.11;59.72
8039;BME280;4062;49.844;8.120;2023-06-04T00:12:13;99490.78;;;17.11;59.73
8039;BME280;4062;49.844;8.120;2023-06-04T00:14:18;99489.94;;;17.11;59.93
8039;BME280;4062;49.844;8.120;2023-06-04T00:16:19;99490.78;;;17.11;59.64
8039;BME280;4062;49.844;8.120;2023-06-04T00:18:20;99488.09;;;17.11;59.74
8039;BME280;4062;49.844;8.120;2023-06-04T00:20:22;99489.94;;;17.11;59.73
8039;BME280;4062;49.844;8.120;2023-06-04T00:22:24;99489.94;;;17.11;59.81
8039;BME280;4062;49.844;8.120;2023-06-04T00:24:26;99488.09;;;17.11;59.70
8039;BME280;4062;49.844;8.120;2023-06-04T00:26:27;99493.44;;;17.11;59.74
8039;BME280;4062;49.844;8.120;2023-06-04T00:28:28;99494.38;;;17.10;59.75
8039;BME280;4062;49.844;8.120;2023-06-04T00:30:29;99492.59;;;17.11;59.74
8039;BME280;4062;49.844;8.120;2023-06-04T00:32:31;99492.59;;;17.11;59.72
8039;BME280;4062;49.844;8.120;2023-06-04T00:34:32;99487.25;;;17.11;59.76
8039;BME280;4062;49.844;8.120;2023-06-04T00:36:34;99490.78;;;17.11;59.93
8039;BME280;4062;49.844;8.120;2023-06-04T00:38:35;99496.13;;;17.11;59.90
8039;BME280;4062;49.844;8.120;2023-06-04T00:40:39;99490.78;;;17.11;59.73
8039;BME280;4062;49.844;8.120;2023-06-04T00:42:41;99493.53;;;17.10;59.93
8039;BME280;4062;49.844;8.120;2023-06-04T00:44:42;99505.06;;;17.10;59.68
8039;BME280;4062;49.844;8.120;2023-06-04T00:46:45;99493.44;;;17.11;59.75
8039;BME280;4062;49.844;8.120;2023-06-04T00:48:48;99499.72;;;17.10;59.79
8039;BME280;4062;49.844;8.120;2023-06-04T00:50:50;99497.94;;;17.11;59.69
8039;BME280;4062;49.844;8.120;2023-06-04T00:52:52;99498.78;;;17.11;59.68
8039;BME280;4062;49.844;8.120;2023-06-04T00:54:57;99500.59;;;17.11;59.90
8039;BME280;4062;49.844;8.120;2023-06-04T00:56:59;99505.00;;;17.12;59.93
8039;BME280;4062;49.844;8.120;2023-06-04T00:59:00;99498.78;;;17.11;59.83
8039;BME280;4062;49.844;8.120;2023-06-04T01:01:07;99500.59;;;17.11;59.85
8039;BME280;4062;49.844;8.120;2023-06-04T01:03:14;99504.13;;;17.11;59.96
8039;BME280;4062;49.844;8.120;2023-06-04T01:05:40;99494.31;;;17.12;59.89
8039;BME280;4062;49.844;8.120;2023-06-04T01:07:45;99496.13;;;17.11;59.83
8039;BME280;4062;49.844;8.120;2023-06-04T01:09:48;99497.94;;;17.11;59.62
8039;BME280;4062;49.844;8.120;2023-06-04T01:11:52;99498.78;;;17.11;59.88
8039;BME280;4062;49.844;8.120;2023-06-04T01:13:54;99505.00;;;17.12;59.89
8039;BME280;4062;49.844;8.120;2023-06-04T01:15:55;99504.13;;;17.11;59.90
8039;BME280;4062;49.844;8.120;2023-06-04T01:18:01;99503.28;;;17.11;59.82
8039;BME280;4062;49.844;8.120;2023-06-04T01:22:17;99505.00;;;17.12;59.76
8039;BME280;4062;49.844;8.120;2023-06-04T01:24:26;99503.28;;;17.11;59.81
8039;BME280;4062;49.844;8.120;2023-06-04T01:26:30;99503.28;;;17.11;59.76
8039;BME280;4062;49.844;8.120;2023-06-04T01:28:34;99506.78;;;17.11;59.88
8039;BME280;4062;49.844;8.120;2023-06-04T01:30:37;99497.94;;;17.11;59.55
8039;BME280;4062;49.844;8.120;2023-06-04T01:32:45;99501.44;;;17.11;59.69
8039;BME280;4062;49.844;8.120;2023-06-04T01:34:47;99503.28;;;17.11;59.75
8039;BME280;4062;49.844;8.120;2023-06-04T01:36:49;99499.72;;;17.10;59.77
8039;BME280;4062;49.844;8.120;2023-06-04T01:38:53;99500.50;;;17.12;59.92
8039;BME280;4062;49.844;8.120;2023-06-04T01:40:55;99501.44;;;17.11;59.79
8039;BME280;4062;49.844;8.120;2023-06-04T01:42:58;99501.44;;;17.11;59.88
8039;BME280;4062;49.844;8.120;2023-06-04T01:44:59;99497.94;;;17.11;59.85
8039;BME280;4062;49.844;8.120;2023-06-04T01:47:01;99497.94;;;17.11;60.00
8039;BME280;4062;49.844;8.120;2023-06-04T01:49:02;99493.44;;;17.11;59.70
8039;BME280;4062;49.844;8.120;2023-06-04T01:51:06;99495.25;;;17.11;59.95
8039;BME280;4062;49.844;8.120;2023-06-04T01:53:07;99489.94;;;17.11;59.76
8039;BME280;4062;49.844;8.120;2023-06-04T01:55:11;99490.78;;;17.11;59.92
8039;BME280;4062;49.844;8.120;2023-06-04T01:57:13;99487.25;;;17.11;60.06
8039;BME280;4062;49.844;8.120;2023-06-04T01:59:14;99492.59;;;17.11;59.73
8039;BME280;4062;49.844;8.120;2023-06-04T02:01:23;99487.25;;;17.11;59.60
8039;BME280;4062;49.844;8.120;2023-06-04T02:03:24;99491.72;;;17.10;59.79
8039;BME280;4062;49.844;8.120;2023-06-04T02:05:26;99487.25;;;17.11;59.74
8039;BME280;4062;49.844;8.120;2023-06-04T02:07:27;99490.78;;;17.11;59.81
8039;BME280;4062;49.844;8.120;2023-06-04T02:09:30;99489.94;;;17.11;59.94
8039;BME280;4062;49.844;8.120;2023-06-04T02:11:31;99493.53;;;17.10;60.04
8039;BME280;4062;49.844;8.120;2023-06-04T02:13:32;99497.94;;;17.11;60.00
8039;BME280;4062;49.844;8.120;2023-06-04T02:15:34;99503.19;;;17.12;59.80
8039;BME280;4062;49.844;8.120;2023-06-04T02:17:37;99503.28;;;17.11;59.90
8039;BME280;4062;49.844;8.120;2023-06-04T02:19:42;99504.13;;;17.11;59.76
8039;BME280;4062;49.844;8.120;2023-06-04T02:21:51;99497.94;;;17.11;59.79
8039;BME280;4062;49.844;8.120;2023-06-04T02:23:52;99500.59;;;17.11;59.93
8039;BME280;4062;49.844;8.120;2023-06-04T02:25:55;99498.78;;;17.11;60.00
8039;BME280;4062;49.844;8.120;2023-06-04T02:27:57;99505.94;;;17.11;59.98
8039;BME280;4062;49.844;8.120;2023-06-04T02:29:58;99498.78;;;17.11;59.79
8039;BME280;4062;49.844;8.120;2023-06-04T02:31:59;99506.78;;;17.11;59.85
8039;BME280;4062;49.844;8.120;2023-06-04T02:34:01;99496.13;;;17.11;59.87
8039;BME280;4062;49.844;8.120;2023-06-04T02:36:04;99497.94;;;17.11;59.82
8039;BME280;4062;49.844;8.120;2023-06-04T02:38:06;99506.78;;;17.11;59.79
8039;BME280;4062;49.844;8.120;2023-06-04T02:40:09;99500.59;;;17.11;59.83
8039;BME280;4062;49.844;8.120;2023-06-04T02:42:10;99501.44;;;17.11;59.96
8039;BME280;4062;49.844;8.120;2023-06-04T02:44:12;99505.94;;;17.11;60.01
8039;BME280;4062;49.844;8.120;2023-06-04T02:46:16;99503.28;;;17.11;59.79
8039;BME280;4062;49.844;8.120;2023-06-04T02:48:18;99504.13;;;17.11;59.81
8039;BME280;4062;49.844;8.120;2023-06-04T02:50:22;99499.66;;;17.12;59.78
8039;BME280;4062;49.844;8.120;2023-06-04T02:52:23;99498.78;;;17.11;59.90
8039;BME280;4062;49.844;8.120;2023-06-04T02:54:26;99494.38;;;17.10;59.73
8039;BME280;4062;49.844;8.120;2023-06-04T02:56:30;99504.13;;;17.11;59.76
8039;BME280;4062;49.844;8.120;2023-06-04T02:58:31;99503.28;;;17.11;59.98
8039;BME280;4062;49.844;8.120;2023-06-04T03:00:36;99503.28;;;17.11;59.76
8039;BME280;4062;49.844;8.120;2023-06-04T03:02:46;99505.94;;;17.11;59.87
8039;BME280;4062;49.844;8.120;2023-06-04T03:04:48;99505.94;;;17.11;59.82
8039;BME280;4062;49.844;8.120;2023-06-04T03:06:51;99507.72;;;17.10;59.97
8039;BME280;4062;49.844;8.120;2023-06-04T03:08:59;99505.06;;;17.10;59.95
8039;BME280;4062;49.844;8.120;2023-06-04T03:11:00;99503.28;;;17.11;59.89
8039;BME280;4062;49.844;8.120;2023-06-04T03:13:02;99502.38;;;17.10;59.88
8039;BME280;4062;49.844;8.120;2023-06-04T03:15:04;99500.59;;;17.11;60.01
8039;BME280;4062;49.844;8.120;2023-06-04T03:17:06;99497.06;;;17.10;59.83
8039;BME280;4062;49.844;8.120;2023-06-04T03:19:14;99502.38;;;17.10;59.83
8039;BME280;4062;49.844;8.120;2023-06-04T03:21:16;99507.72;;;17.10;60.02
8039;BME280;4062;49.844;8.120;2023-06-04T03:23:21;99506.88;;;17.10;59.89
8039;BME280;4062;49.844;8.120;2023-06-04T03:25:22;99503.28;;;17.11;60.04
8039;BME280;4062;49.844;8.120;2023-06-04T03:27:24;99500.59;;;17.11;59.80
8039;BME280;4062;49.844;8.120;2023-06-04T03:29:26;99516.63;;;17.11;59.96
8039;BME280;4062;49.844;8.120;2023-06-04T03:31:28;99513.06;;;17.10;59.71
8039;BME280;4062;49.844;8.120;2023-06-04T03:33:32;99512.22;;;17.10;59.77
8039;BME280;4062;49.844;8.120;2023-06-04T03:35:33;99505.94;;;17.11;59.87
8039;BME280;4062;49.844;8.120;2023-06-04T03:37:35;99510.41;;;17.10;60.01
8039;BME280;4062;49.844;8.120;2023-06-04T03:39:36;99518.41;;;17.10;59.69
8039;BME280;4062;49.844;8.120;2023-06-04T03:41:41;99507.72;;;17.10;59.77
8039;BME280;4062;49.844;8.120;2023-06-04T03:43:43;99513.06;;;17.10;60.02
8039;BME280;4062;49.844;8.120;2023-06-04T03:45:46;99508.63;;;17.11;60.00
8039;BME280;4062;49.844;8.120;2023-06-04T03:47:48;99518.41;;;17.10;59.96
8039;BME280;4062;49.844;8.120;2023-06-04T03:49:49;99513.94;;;17.11;59.95
8039;BME280;4062;49.844;8.120;2023-06-04T03:51:51;99513.94;;;17.11;59.90
8039;BME280;4062;49.844;8.120;2023-06-04T03:53:54;99518.41;;;17.10;59.93
8039;BME280;4062;49.844;8.120;2023-06-04T03:55:56;99515.75;;;17.10;59.88
8039;BME280;4062;49.844;8.120;2023-06-04T03:57:58;99516.63;;;17.11;60.00
8039;BME280;4062;49.844;8.120;2023-06-04T03:59:59;99522.81;;;17.11;59.86
8039;BME280;4062;49.844;8.120;2023-06-04T04:02:00;99520.13;;;17.11;60.00
8039;BME280;4062;49.844;8.120;2023-06-04T04:04:05;99513.06;;;17.10;60.04
8039;BME280;4062;49.844;8.120;2023-06-04T04:06:10;99513.00;;;17.12;59.79
8039;BME280;4062;49.844;8.120;2023-06-04T04:08:12;99513.94;;;17.11;60.01
8039;BME280;4062;49.844;8.120;2023-06-04T04:10:18;99511.28;;;17.11;59.96
8039;BME280;4062;49.844;8.120;2023-06-04T04:12:20;99513.06;;;17.10;59.70
8039;BME280;4062;49.844;8.120;2023-06-04T04:14:21;99510.41;;;17.10;59.99
8039;BME280;4062;49.844;8.120;2023-06-04T04:16:22;99513.94;;;17.11;59.85
8039;BME280;4062;49.844;8.120;2023-06-04T04:18:24;99520.13;;;17.11;59.79
8039;BME280;4062;49.844;8.120;2023-06-04T04:20:25;99521.97;;;17.11;59.79
8039;BME280;4062;49.844;8.120;2023-06-04T04:22:35;99528.16;;;17.11;60.02
8039;BME280;4062;49.844;8.120;2023-06-04T04:24:37;99526.41;;;17.10;60.01
8039;BME280;4062;49.844;8.120;2023-06-04T04:26:39;99527.31;;;17.11;59.77
8039;BME280;4062;49.844;8.120;2023-06-04T04:28:40;99530.81;;;17.11;60.02
8039;BME280;4062;49.844;8.120;2023-06-04T04:30:42;99525.56;;;17.10;59.88
8039;BME280;4062;49.844;8.120;2023-06-04T04:32:44;99532.63;;;17.11;59.99
8039;BME280;4062;49.844;8.120;2023-06-04T04:34:52;99537.09;;;17.10;59.79
8039;BME280;4062;49.844;8.120;2023-06-04T04:36:57;99518.41;;;17.10;59.92
8039;BME280;4062;49.844;8.120;2023-06-04T04:39:00;99531.75;;;17.10;59.86
8039;BME280;4062;49.844;8.120;2023-06-04T04:41:08;99530.91;;;17.10;59.78
8039;BME280;4062;49.844;8.120;2023-06-04T04:43:10;99534.44;;;17.10;59.93
8039;BME280;4062;49.844;8.120;2023-06-04T04:45:12;99537.09;;;17.10;59.84
8039;BME280;4062;49.844;8.120;2023-06-04T04:47:17;99528.16;;;17.11;59.73
8039;BME280;4062;49.844;8.120;2023-06-04T04:49:18;99532.63;;;17.11;59.86
8039;BME280;4062;49.844;8.120;2023-06-04T04:51:19;99529.09;;;17.10;59.80
8039;BME280;4062;49.844;8.120;2023-06-04T04:53:21;99536.16;;;17.11;59.86
8039;BME280;4062;49.844;8.120;2023-06-04T04:55:22;99534.44;;;17.10;59.96
8039;BME280;4062;49.844;8.120;2023-06-04T04:57:25;99528.22;;;17.10;59.81
8039;BME280;4062;49.844;8.120;2023-06-04T04:59:29;99540.66;;;17.11;59.77
8039;BME280;4062;49.844;8.120;2023-06-04T05:01:33;99537.97;;;17.11;59.98
8039;BME280;4062;49.844;8.120;2023-06-04T05:03:35;99535.31;;;17.11;59.80
8039;BME280;4062;49.844;8.120;2023-06-04T05:05:37;99539.75;;;17.10;59.79
8039;BME280;4062;49.844;8.120;2023-06-04T05:07:39;99547.72;;;17.12;59.88
8039;BME280;4062;49.844;8.120;2023-06-04T05:09:41;99543.31;;;17.11;59.96
8039;BME280;4062;49.844;8.120;2023-06-04T05:11:44;99552.19;;;17.11;59.94
8039;BME280;4062;49.844;8.120;2023-06-04T05:13:46;99551.25;;;17.12;59.85
8039;BME280;4062;49.844;8.120;2023-06-04T05:15:48;99551.31;;;17.11;59.95
8039;BME280;4062;49.844;8.120;2023-06-04T05:17:53;99552.19;;;17.11;59.82
8039;BME280;4062;49.844;8.120;2023-06-04T05:19:55;99552.19;;;17.11;59.81
8039;BME280;4062;49.844;8.120;2023-06-04T05:22:08;99552.19;;;17.11;59.79
8039;BME280;4062;49.844;8.120;2023-06-04T05:24:10;99553.06;;;17.12;60.00
8039;BME280;4062;49.844;8.120;2023-06-04T05:26:16;99565.53;;;17.11;60.01
8039;BME280;4062;49.844;8.120;2023-06-04T05:28:19;99552.19;;;17.11;59.82
8039;BME280;4062;49.844;8.120;2023-06-04T05:30:22;99557.50;;;17.11;59.77
8039;BME280;4062;49.844;8.120;2023-06-04T05:32:24;99554.00;;;17.11;59.90
8039;BME280;4062;49.844;8.120;2023-06-04T05:34:30;99557.50;;;17.11;59.85
8039;BME280;4062;49.844;8.120;2023-06-04T05:36:34;99549.50;;;17.11;59.83
8039;BME280;4062;49.844;8.120;2023-06-04T05:38:38;99554.00;;;17.11;59.93
8039;BME280;4062;49.844;8.120;2023-06-04T05:40:44;99555.78;;;17.10;59.83
8039;BME280;4062;49.844;8.120;2023-06-04T05:42:45;99557.50;;;17.11;60.01
8039;BME280;4062;49.844;8.120;2023-06-04T05:44:48;99561.13;;;17.10;59.86
8039;BME280;4062;49.844;8.120;2023-06-04T05:46:51;99554.00;;;17.11;59.83
8039;BME280;4062;49.844;8.120;2023-06-04T05:48:53;99554.84;;;17.11;59.83
8039;BME280;4062;49.844;8.120;2023-06-04T05:50:56;99552.19;;;17.11;59.83
8039;BME280;4062;49.844;8.120;2023-06-04T05:52:57;99557.50;;;17.11;59.82
8039;BME280;4062;49.844;8.120;2023-06-04T05:54:59;99563.75;;;17.12;59.93
8039;BME280;4062;49.844;8.120;2023-06-04T05:57:01;99554.84;;;17.11;59.86
8039;BME280;4062;49.844;8.120;2023-06-04T05:59:02;99558.41;;;17.12;59.78
8039;BME280;4062;49.844;8.120;2023-06-04T06:01:04;99571.75;;;17.12;59.99
8039;BME280;4062;49.844;8.120;2023-06-04T06:03:05;99567.25;;;17.12;60.12
8039;BME280;4062;49.844;8.120;2023-06-04T06:05:15;99558.41;;;17.12;59.98
8039;BME280;4062;49.844;8.120;2023-06-04T06:07:30;99566.31;;;17.13;59.91
8039;BME280;4062;49.844;8.120;2023-06-04T06:09:32;99572.59;;;17.12;59.75
8039;BME280;4062;49.844;8.120;2023-06-04T06:11:33;99571.75;;;17.12;59.76
8039;BME280;4062;49.844;8.120;2023-06-04T06:13:35;99560.13;;;17.13;59.90
8039;BME280;4062;49.844;8.120;2023-06-04T06:15:36;99575.25;;;17.12;59.78
8039;BME280;4062;49.844;8.120;2023-06-04T06:17:38;99574.34;;;17.13;59.87
8039;BME280;4062;49.844;8.120;2023-06-04T06:19:40;99581.41;;;17.14;59.74
8039;BME280;4062;49.844;8.120;2023-06-04T06:21:41;99583.22;;;17.14;59.88
8039;BME280;4062;49.844;8.120;2023-06-04T06:23:43;99583.22;;;17.14;59.87
8039;BME280;4062;49.844;8.120;2023-06-04T06:25:44;99578.72;;;17.14;59.76
8039;BME280;4062;49.844;8.120;2023-06-04T06:27:51;99585.81;;;17.15;59.90
8039;BME280;4062;49.844;8.120;2023-06-04T06:29:54;99588.47;;;17.15;59.70
8039;BME280;4062;49.844;8.120;2023-06-04T06:31:56;99591.06;;;17.17;59.76
8039;BME280;4062;49.844;8.120;2023-06-04T06:33:58;99591.06;;;17.17;59.94
8039;BME280;4062;49.844;8.120;2023-06-04T06:35:59;99594.63;;;17.17;59.77
8039;BME280;4062;49.844;8.120;2023-06-04T06:38:01;99596.34;;;17.18;59.72
8039;BME280;4062;49.844;8.120;2023-06-04T06:40:02;99589.19;;;17.19;59.69
8039;BME280;4062;49.844;8.120;2023-06-04T06:42:04;99598.94;;;17.20;59.81
8039;BME280;4062;49.844;8.120;2023-06-04T06:44:11;99596.19;;;17.22;59.77
8039;BME280;4062;49.844;8.120;2023-06-04T06:46:13;99600.59;;;17.23;59.68
8039;BME280;4062;49.844;8.120;2023-06-04T06:48:14;99605.84;;;17.24;59.77
8039;BME280;4062;49.844;8.120;2023-06-04T06:50:15;99609.41;;;17.25;59.65
8039;BME280;4062;49.844;8.120;2023-06-04T06:52:16;99603.03;;;17.27;59.51
8039;BME280;4062;49.844;8.120;2023-06-04T06:54:20;99606.59;;;17.28;59.66
8039;BME280;4062;49.844;8.120;2023-06-04T06:56:24;99610.97;;;17.29;59.35
8039;BME280;4062;49.844;8.120;2023-06-04T06:58:26;99615.34;;;17.30;59.40
8039;BME280;4062;49.844;8.120;2023-06-04T07:00:27;99607.34;;;17.30;59.37
8039;BME280;4062;49.844;8.120;2023-06-04T07:02:29;99610.03;;;17.30;59.54
8039;BME280;4062;49.844;8.120;2023-06-04T07:04:31;99617.97;;;17.31;59.32
8039;BME280;4062;49.844;8.120;2023-06-04T07:06:33;99611.75;;;17.31;59.35
8039;BME280;4062;49.844;8.120;2023-06-04T07:08:35;99610.91;;;17.30;59.42
8039;BME280;4062;49.844;8.120;2023-06-04T07:10:36;99610.91;;;17.30;59.43
8039;BME280;4062;49.844;8.120;2023-06-04T07:12:38;99608.22;;;17.30;59.47
8039;BME280;4062;49.844;8.120;2023-06-04T07:14:40;99601.97;;;17.31;59.52
8039;BME280;4062;49.844;8.120;2023-06-04T07:16:41;99604.63;;;17.31;59.44
8039;BME280;4062;49.844;8.120;2023-06-04T07:18:43;99610.81;;;17.32;59.31
8039;BME280;4062;49.844;8.120;2023-06-04T07:20:44;99609.97;;;17.31;59.29
8039;BME280;4062;49.844;8.120;2023-06-04T07:22:48;99617.03;;;17.32;59.42
8039;BME280;4062;49.844;8.120;2023-06-04T07:24:49;99611.69;;;17.32;59.40
8039;BME280;4062;49.844;8.120;2023-06-04T07:26:51;99615.22;;;17.33;59.35
8039;BME280;4062;49.844;8.120;2023-06-04T07:28:53;99617.91;;;17.33;59.52
8039;BME280;4062;49.844;8.120;2023-06-04T07:30:55;99612.56;;;17.33;59.26
8039;BME280;4062;49.844;8.120;2023-06-04T07:32:56;99611.63;;;17.34;59.36
8039;BME280;4062;49.844;8.120;2023-06-04T07:34:57;99610.72;;;17.33;59.33
8039;BME280;4062;49.844;8.120;2023-06-04T07:36:59;99607.22;;;17.33;59.47
8039;BME280;4062;49.844;8.120;2023-06-04T07:39:00;99612.56;;;17.33;59.50
8039;BME280;4062;49.844;8.120;2023-06-04T07:41:02;99613.41;;;17.33;59.36
8039;BME280;4062;49.844;8.120;2023-06-04T07:43:03;99615.22;;;17.33;59.63
8039;BME280;4062;49.844;8.120;2023-06-04T07:45:05;99613.50;;;17.32;59.57
8039;BME280;4062;49.844;8.120;2023-06-04T07:47:06;99613.50;;;17.32;59.37
8039;BME280;4062;49.844;8.120;2023-06-04T07:49:09;99620.66;;;17.31;59.57
8039;BME280;4062;49.844;8.120;2023-06-04T07:51:10;99615.22;;;17.33;59.62
8039;BME280;4062;49.844;8.120;2023-06-04T07:53:12;99624.16;;;17.32;59.58
8039;BME280;4062;49.844;8.120;2023-06-04T07:55:13;99622.38;;;17.32;59.60
8039;BME280;4062;49.844;8.120;2023-06-04T07:57:18;99623.22;;;17.33;59.56
8039;BME280;4062;49.844;8.120;2023-06-04T07:59:19;99621.41;;;17.33;59.45
8039;BME280;4062;49.844;8.120;2023-06-04T08:01:20;99624.09;;;17.33;59.54
8039;BME280;4062;49.844;8.120;2023-06-04T08:03:22;99624.97;;;17.34;59.36
8039;BME280;4062;49.844;8.120;2023-06-04T08:05:24;99619.63;;;17.34;59.40
8039;BME280;4062;49.844;8.120;2023-06-04T08:07:25;99628.50;;;17.34;59.38
8039;BME280;4062;49.844;8.120;2023-06-04T08:09:27;99622.31;;;17.34;59.38
8039;BME280;4062;49.844;8.120;2023-06-04T08:11:28;99624.97;;;17.34;59.42
8039;BME280;4062;49.844;8.120;2023-06-04T08:13:32;99621.41;;;17.33;59.62
8039;BME280;4062;49.844;8.120;2023-06-04T08:15:34;99616.06;;;17.33;59.56
8039;BME280;4062;49.844;8.120;2023-06-04T08:17:55;99625.81;;;17.34;59.42
8039;BME280;4062;49.844;8.120;2023-06-04T08:19:59;99622.31;;;17.34;59.40
8039;BME280;4062;49.844;8.120;2023-06-04T08:22:17;99609.88;;;17.33;59.43
8039;BME280;4062;49.844;8.120;2023-06-04T08:24:26;99615.22;;;17.33;59.49
8039;BME280;4062;49.844;8.120;2023-06-04T08:26:48;99621.41;;;17.33;59.44
8039;BME280;4062;49.844;8.120;2023-06-04T08:29:01;99619.72;;;17.32;59.66
8039;BME280;4062;49.844;8.120;2023-06-04T08:31:09;99617.97;;;17.31;59.45
8039;BME280;4062;49.844;8.120;2023-06-04T08:33:17;99625.06;;;17.32;59.63
8039;BME280;4062;49.844;8.120;2023-06-04T08:35:22;99625.06;;;17.32;59.55
8039;BME280;4062;49.844;8.120;2023-06-04T08:37:23;99629.50;;;17.32;59.64
8039;BME280;4062;49.844;8.120;2023-06-04T08:39:25;99628.66;;;17.31;59.70
8039;BME280;4062;49.844;8.120;2023-06-04T08:41:58;99626.84;;;17.32;59.47
8039;BME280;4062;49.844;8.120;2023-06-04T08:44:00;99624.16;;;17.32;59.78
8039;BME280;4062;49.844;8.120;2023-06-04T08:46:07;99626.84;;;17.32;59.73
8039;BME280;4062;49.844;8.120;2023-06-04T08:48:10;99620.66;;;17.31;59.47
8039;BME280;4062;49.844;8.120;2023-06-04T08:50:15;99632.09;;;17.33;59.60
8039;BME280;4062;49.844;8.120;2023-06-04T08:52:17;99629.44;;;17.33;59.58
8039;BME280;4062;49.844;8.120;2023-06-04T08:54:22;99635.66;;;17.34;59.71
8039;BME280;4062;49.844;8.120;2023-06-04T08:56:27;99635.66;;;17.34;59.60
8039;BME280;4062;49.844;8.120;2023-06-04T08:58:36;99644.50;;;17.34;59.61
8039;BME280;4062;49.844;8.120;2023-06-04T09:00:41;99636.50;;;17.34;59.49
8039;BME280;4062;49.844;8.120;2023-06-04T09:02:43;99642.72;;;17.35;59.43
8039;BME280;4062;49.844;8.120;2023-06-04T09:04:46;99642.72;;;17.35;59.58
8039;BME280;4062;49.844;8.120;2023-06-04T09:06:48;99637.44;;;17.33;59.57
8039;BME280;4062;49.844;8.120;2023-06-04T09:08:50;99642.63;;;17.37;59.73
8039;BME280;4062;49.844;8.120;2023-06-04T09:10:54;99640.91;;;17.35;59.44
8039;BME280;4062;49.844;8.120;2023-06-04T09:12:58;99645.41;;;17.35;59.65
8039;BME280;4062;49.844;8.120;2023-06-04T09:15:02;99649.84;;;17.34;59.48
8039;BME280;4062;49.844;8.120;2023-06-04T09:17:04;99646.25;;;17.35;59.39
8039;BME280;4062;49.844;8.120;2023-06-04T09:19:06;99649.81;;;17.36;59.42
8039;BME280;4062;49.844;8.120;2023-06-04T09:21:09;99646.25;;;17.35;59.50
8039;BME280;4062;49.844;8.120;2023-06-04T09:23:14;99647.13;;;17.36;59.55
8039;BME280;4062;49.844;8.120;2023-06-04T09:25:26;99639.19;;;17.34;59.61
8039;BME280;4062;49.844;8.120;2023-06-04T09:27:27;99638.31;;;17.34;59.68
8039;BME280;4062;49.844;8.120;2023-06-04T09:29:38;99638.31;;;17.34;59.72
8039;BME280;4062;49.844;8.120;2023-06-04T09:31:40;99634.72;;;17.35;59.63
8039;BME280;4062;49.844;8.120;2023-06-04T09:33:49;99642.78;;;17.33;59.49
8039;BME280;4062;49.844;8.120;2023-06-04T09:35:58;99640.06;;;17.35;59.57
8039;BME280;4062;49.844;8.120;2023-06-04T09:37:59;99632.97;;;17.34;59.57
8039;BME280;4062;49.844;8.120;2023-06-04T09:40:03;99632.97;;;17.34;59.58
8039;BME280;4062;49.844;8.120;2023-06-04T09:42:06;99640.06;;;17.35;59.44
8039;BME280;4062;49.844;8.120;2023-06-04T09:44:09;99632.03;;;17.35;59.44
8039;BME280;4062;49.844;8.120;2023-06-04T09:46:13;99634.72;;;17.35;59.51
8039;BME280;4062;49.844;8.120;2023-06-04T09:48:21;99639.13;;;17.36;59.40
8039;BME280;4062;49.844;8.120;2023-06-04T09:50:27;99640.06;;;17.35;59.49
8039;BME280;4062;49.844;8.120;2023-06-04T09:52:34;99630.22;;;17.35;59.59
8039;BME280;4062;49.844;8.120;2023-06-04T09:54:40;99632.91;;;17.35;59.48
8039;BME280;4062;49.844;8.120;2023-06-04T09:56:42;99634.72;;;17.35;59.52
8039;BME280;4062;49.844;8.120;2023-06-04T09:58:44;99631.97;;;17.37;59.60
8039;BME280;4062;49.844;8.120;2023-06-04T10:00:47;99632.03;;;17.35;59.46
8039;BME280;4062;49.844;8.120;2023-06-04T10:02:56;99636.44;;;17.36;59.47
8039;BME280;4062;49.844;8.120;2023-06-04T10:04:59;99641.78;;;17.36;59.69
8039;BME280;4062;49.844;8.120;2023-06-04T10:07:02;99642.63;;;17.37;59.66
8039;BME280;4062;49.844;8.120;2023-06-04T10:09:08;99642.63;;;17.37;59.49
8039;BME280;4062;49.844;8.120;2023-06-04T10:11:12;99639.97;;;17.37;59.43
8039;BME280;4062;49.844;8.120;2023-06-04T10:13:18;99631.09;;;17.36;59.75
8039;BME280;4062;49.844;8.120;2023-06-04T10:15:21;99636.44;;;17.36;59.43
8039;BME280;4062;49.844;8.120;2023-06-04T10:17:23;99635.50;;;17.37;59.64
8039;BME280;4062;49.844;8.120;2023-06-04T10:19:26;99638.19;;;17.37;59.47
8039;BME280;4062;49.844;8.120;2023-06-04T10:21:30;99629.28;;;17.37;59.55
8039;BME280;4062;49.844;8.120;2023-06-04T10:23:36;99631.97;;;17.37;59.43
8039;BME280;4062;49.844;8.120;2023-06-04T10:25:38;99630.16;;;17.37;59.44
8039;BME280;4062;49.844;8.120;2023-06-04T10:27:40;99632.84;;;17.37;59.46
8039;BME280;4062;49.844;8.120;2023-06-04T10:29:41;99631.09;;;17.36;59.38
8039;BME280;4062;49.844;8.120;2023-06-04T10:31:43;99631.97;;;17.37;59.40
8039;BME280;4062;49.844;8.120;2023-06-04T10:33:46;99633.78;;;17.36;59.57
8039;BME280;4062;49.844;8.120;2023-06-04T10:35:47;99626.63;;;17.37;59.49
8039;BME280;4062;49.844;8.120;2023-06-04T10:37:51;99627.50;;;17.37;59.43
8039;BME280;4062;49.844;8.120;2023-06-04T10:40:01;99626.63;;;17.37;59.50
8039;BME280;4062;49.844;8.120;2023-06-04T10:42:06;99632.84;;;17.37;59.49
8039;BME280;4062;49.844;8.120;2023-06-04T10:44:08;99626.63;;;17.37;59.45
8039;BME280;4062;49.844;8.120;2023-06-04T10:46:16;99621.28;;;17.37;59.55
8039;BME280;4062;49.844;8.120;2023-06-04T10:48:21;99623.94;;;17.37;59.38
8039;BME280;4062;49.844;8.120;2023-06-04T10:50:22;99624.84;;;17.37;59.44
8039;BME280;4062;49.844;8.120;2023-06-04T10:52:23;99626.63;;;17.37;59.68
8039;BME280;4062;49.844;8.120;2023-06-04T10:54:25;99623.09;;;17.36;59.45
8039;BME280;4062;49.844;8.120;2023-06-04T10:56:35;99631.09;;;17.36;59.40
8039;BME280;4062;49.844;8.120;2023-06-04T10:58:37;99625.78;;;17.36;59.47
8039;BME280;4062;49.844;8.120;2023-06-04T11:00:43;99629.28;;;17.37;59.62
8039;BME280;4062;49.844;8.120;2023-06-04T11:02:58;99632.84;;;17.37;59.44
8039;BME280;4062;49.844;8.120;2023-06-04T11:05:04;99628.34;;;17.38;59.56
8039;BME280;4062;49.844;8.120;2023-06-04T11:07:11;99620.44;;;17.36;59.41
8039;BME280;4062;49.844;8.120;2023-06-04T11:09:14;99631.97;;;17.37;59.70
8039;BME280;4062;49.844;8.120;2023-06-04T11:11:19;99627.56;;;17.35;59.64
8039;BME280;4062;49.844;8.120;2023-06-04T11:13:26;99626.63;;;17.37;59.47